createdAt,value
2022-11-08T00:05:18.161Z,26.1
2022-11-08T00:10:40.577Z,26.1
2022-11-08T00:15:46.339Z,26.1
2022-11-08T00:21:23.532Z,26.1
2022-11-08T00:27:00.944Z,26.1
2022-11-08T00:32:22.481Z,26.1
2022-11-08T00:37:59.515Z,26.1
2022-11-08T00:43:37.869Z,26.1
2022-11-08T00:49:14.393Z,26.1
2022-11-08T00:54:51.372Z,26
2022-11-08T01:00:51.817Z,26
2022-11-08T01:11:50.894Z,26
2022-11-08T01:17:13.257Z,25.9
2022-11-08T01:22:35.606Z,25.9
2022-11-08T01:28:12.895Z,25.9
2022-11-08T01:33:51.685Z,25.9
2022-11-08T01:39:28.638Z,25.9
2022-11-08T01:44:34.531Z,25.9
2022-11-08T01:50:13.609Z,25.9
2022-11-08T01:55:35.110Z,25.9
2022-11-08T02:01:10.939Z,25.9
2022-11-08T02:06:49.220Z,25.9
2022-11-08T02:12:09.701Z,25.9
2022-11-08T02:17:52.034Z,25.9
2022-11-08T02:23:14.844Z,25.9
2022-11-08T02:28:52.122Z,25.8
2022-11-08T02:34:12.986Z,25.8
2022-11-08T02:39:51.003Z,25.8
2022-11-08T02:45:28.386Z,25.8
2022-11-08T02:51:06.890Z,25.8
2022-11-08T03:02:06.151Z,25.8
2022-11-08T03:07:28.448Z,25.8
2022-11-08T03:12:51.441Z,25.8
2022-11-08T03:18:29.212Z,25.8
2022-11-08T03:24:10.604Z,25.8
2022-11-08T03:29:49.067Z,25.8
2022-11-08T03:35:09.804Z,25.7
2022-11-08T03:46:08.941Z,25.7
2022-11-08T03:51:45.417Z,25.7
2022-11-08T03:57:22.392Z,25.7
2022-11-08T04:03:01.015Z,25.7
2022-11-08T04:08:22.524Z,25.6
2022-11-08T04:13:59.598Z,25.6
2022-11-08T04:19:42.664Z,25.6
2022-11-08T04:25:20.137Z,25.6
2022-11-08T04:41:26.091Z,25.6
2022-11-08T04:46:35.697Z,25.6
2022-11-08T04:52:19.816Z,25.6
2022-11-08T05:03:10.667Z,25.6
2022-11-08T05:08:33.747Z,25.6
2022-11-08T05:14:16.298Z,25.6
2022-11-08T05:19:45.060Z,25.6
2022-11-08T05:25:23.522Z,25.5
2022-11-08T05:31:04.420Z,25.5
2022-11-08T05:36:41.229Z,25.5
2022-11-08T05:42:13.047Z,25.5
2022-11-08T05:47:34.347Z,25.5
2022-11-08T05:53:11.186Z,25.5
2022-11-08T05:58:49.753Z,25.4
2022-11-08T06:04:29.745Z,25.4
2022-11-08T06:10:11.894Z,25.4
2022-11-08T06:15:51.495Z,25.4
2022-11-08T06:21:28.910Z,25.4
2022-11-08T06:27:09.858Z,25.4
2022-11-08T06:32:33.881Z,25.4
2022-11-08T06:38:00.628Z,25.4
2022-11-08T06:43:39.482Z,25.4
2022-11-08T06:49:07.750Z,25.4
2022-11-08T06:54:50.311Z,25.4
2022-11-08T07:00:27.189Z,25.4
2022-11-08T07:11:31.413Z,25.3
2022-11-08T07:17:08.495Z,25.3
2022-11-08T07:22:46.705Z,25.3
2022-11-08T07:28:24.563Z,25.3
2022-11-08T07:34:03.403Z,25.3
2022-11-08T07:39:26.321Z,25.3
2022-11-08T07:45:31.353Z,25.3
2022-11-08T07:51:07.844Z,25.3
2022-11-08T07:56:49.793Z,25.3
2022-11-08T08:02:28.007Z,25.3
2022-11-08T08:08:06.114Z,25.3
2022-11-08T08:13:50.521Z,25.3
2022-11-08T08:24:51.665Z,25.2
2022-11-08T08:30:29.529Z,25.2
2022-11-08T08:36:41.874Z,25.2
2022-11-08T08:42:26.155Z,25.2
2022-11-08T08:48:06.197Z,25.2
2022-11-08T08:53:43.723Z,25.2
2022-11-08T09:01:51.504Z,25.1
2022-11-08T09:07:16.558Z,25.1
2022-11-08T09:12:41.659Z,25.1
2022-11-08T09:18:03.690Z,25.1
2022-11-08T09:23:26.876Z,25.1
2022-11-08T09:28:48.509Z,25.1
2022-11-08T09:34:38.253Z,25.1
2022-11-08T09:40:06.040Z,25.1
2022-11-08T09:45:29.174Z,25.1
2022-11-08T09:51:07.051Z,25.1
2022-11-08T09:56:47.249Z,25.1
2022-11-08T10:02:30.765Z,25.1
2022-11-08T10:07:53.749Z,25.1
2022-11-08T10:13:33.559Z,25.1
2022-11-08T10:19:06.675Z,25
2022-11-08T10:24:44.538Z,25
2022-11-08T10:30:25.280Z,25
2022-11-08T10:36:02.924Z,25
2022-11-08T10:41:40.460Z,25
2022-11-08T10:47:23.773Z,25
2022-11-08T10:53:03.357Z,25
2022-11-08T10:58:40.975Z,24.9
2022-11-08T11:04:21.251Z,24.9
2022-11-08T11:09:58.993Z,24.9
2022-11-08T11:15:25.494Z,24.9
2022-11-08T11:21:03.887Z,24.9
2022-11-08T11:26:41.505Z,24.9
2022-11-08T11:32:18.975Z,24.9
2022-11-08T11:37:57.347Z,24.9
2022-11-08T11:44:01.865Z,24.9
2022-11-08T11:49:43.419Z,24.9
2022-11-08T11:55:27.321Z,24.9
2022-11-08T12:01:07.340Z,24.9
2022-11-08T12:12:10.816Z,24.8
2022-11-08T12:17:52.060Z,24.8
2022-11-08T12:23:34.879Z,24.8
2022-11-08T12:29:15.135Z,24.8
2022-11-08T12:34:52.476Z,24.8
2022-11-08T12:40:29.875Z,24.8
2022-11-08T12:46:07.971Z,24.8
2022-11-08T12:51:50.619Z,24.8
2022-11-08T12:57:27.615Z,24.8
2022-11-08T13:03:07.245Z,24.7
2022-11-08T13:08:50.230Z,24.8
2022-11-08T13:14:27.081Z,24.8
2022-11-08T13:20:06.071Z,24.8
2022-11-08T13:26:07.218Z,24.7
2022-11-08T13:31:32.204Z,24.7
2022-11-08T13:37:10.544Z,24.7
2022-11-08T13:42:52.263Z,24.7
2022-11-08T13:48:30.439Z,24.7
2022-11-08T13:54:08.844Z,24.7
2022-11-08T13:59:46.903Z,24.7
2022-11-08T14:05:25.444Z,24.6
2022-11-08T14:11:12.346Z,24.6
2022-11-08T14:16:49.811Z,24.6
2022-11-08T14:22:26.820Z,24.6
2022-11-08T14:28:11.957Z,24.6
2022-11-08T14:33:55.788Z,24.6
2022-11-08T14:39:35.744Z,24.6
2022-11-08T14:45:14.475Z,24.6
2022-11-08T14:50:52.537Z,24.6
2022-11-08T14:56:20.862Z,24.6
2022-11-08T15:01:59.471Z,24.6
2022-11-08T15:07:21.441Z,24.6
2022-11-08T15:12:59.492Z,24.6
2022-11-08T15:18:43.000Z,24.5
2022-11-08T15:24:20.795Z,24.5
2022-11-08T15:30:00.465Z,24.5
2022-11-08T15:41:09.624Z,24.5
2022-11-08T15:46:31.127Z,24.5
2022-11-08T15:52:09.579Z,24.5
2022-11-08T15:57:46.907Z,24.5
2022-11-08T16:08:53.291Z,24.4
2022-11-08T16:14:15.193Z,24.4
2022-11-08T16:19:58.273Z,24.4
2022-11-08T16:25:42.429Z,24.4
2022-11-08T16:31:03.889Z,24.4
2022-11-08T16:36:26.052Z,24.4
2022-11-08T16:42:04.006Z,24.4
2022-11-08T16:47:59.605Z,24.4
2022-11-08T16:53:37.761Z,24.4
2022-11-08T16:59:46.850Z,24.4
2022-11-08T17:10:36.767Z,24.4
2022-11-08T17:16:15.605Z,24.4
2022-11-08T17:22:32.561Z,24.3
2022-11-08T17:28:14.426Z,24.3
2022-11-08T17:33:54.026Z,24.3
2022-11-08T17:39:31.748Z,24.3
2022-11-08T17:45:12.920Z,24.3
2022-11-08T17:50:51.139Z,24.3
2022-11-08T17:56:32.564Z,24.3
2022-11-08T18:01:54.460Z,24.3
2022-11-08T18:07:34.646Z,24.3
2022-11-08T18:29:18.160Z,24.3
2022-11-08T18:35:01.148Z,24.3
2022-11-08T18:40:42.417Z,24.3
2022-11-08T18:46:20.766Z,24.2
2022-11-08T18:52:04.292Z,24.2
2022-11-08T18:57:42.236Z,24.2
2022-11-08T19:03:24.845Z,24.2
2022-11-08T19:08:34.962Z,24.2
2022-11-08T19:14:12.606Z,24.1
2022-11-08T19:19:34.222Z,24.1
2022-11-08T19:25:11.073Z,24.1
2022-11-08T19:30:51.503Z,24.1
2022-11-08T19:36:13.456Z,24.1
2022-11-08T19:41:56.061Z,24.1
2022-11-08T19:47:03.690Z,24.1
2022-11-08T19:52:26.106Z,24.1
2022-11-08T19:57:54.673Z,24.1
2022-11-08T20:03:17.613Z,24.1
2022-11-08T20:08:40.750Z,24.1
2022-11-08T20:14:03.666Z,24.1
2022-11-08T20:19:12.027Z,24.1
2022-11-08T20:24:49.752Z,24.1
2022-11-08T20:30:19.224Z,24.1
2022-11-08T20:36:01.388Z,24.1
2022-11-08T20:41:26.342Z,24.1
2022-11-08T20:46:54.303Z,24
2022-11-08T20:52:42.105Z,24
2022-11-08T20:58:25.024Z,24
2022-11-08T21:04:24.910Z,24
2022-11-08T21:12:40.422Z,24
2022-11-08T21:18:27.659Z,24
2022-11-08T21:31:28.631Z,23.9
2022-11-08T21:37:06.933Z,24
2022-11-08T21:42:47.588Z,23.9
2022-11-08T21:48:31.618Z,23.9
2022-11-08T21:54:15.859Z,23.9
2022-11-08T21:59:52.265Z,23.9
2022-11-08T22:05:00.260Z,23.9
2022-11-08T22:10:28.403Z,23.9
2022-11-08T22:15:50.183Z,23.9
2022-11-08T22:21:35.172Z,23.9
2022-11-08T22:26:57.439Z,23.9
2022-11-08T22:32:03.483Z,23.9
2022-11-08T22:37:29.281Z,23.9
2022-11-08T22:42:51.986Z,23.9
2022-11-08T22:48:13.472Z,23.9
2022-11-08T23:03:22.653Z,23.8
2022-11-08T23:13:53.353Z,23.8
2022-11-08T23:18:59.088Z,23.8
2022-11-08T23:24:21.593Z,23.8
2022-11-08T23:34:36.904Z,23.8
2022-11-08T23:39:47.231Z,23.8
2022-11-08T23:45:24.315Z,23.8
2022-11-08T23:50:29.984Z,23.8
2022-11-08T23:55:52.104Z,23.8
